createdAt,value
2023-04-16T00:00:56.257Z,101192.13
2023-04-16T00:06:00.981Z,101191.13
2023-04-16T00:11:04.189Z,101195.25
2023-04-16T00:16:08.347Z,101208.09
2023-04-16T00:21:13.192Z,101206.97
2023-04-16T00:26:17.020Z,101200.72
2023-04-16T00:31:27.358Z,101204.13
2023-04-16T00:36:32.168Z,101200.63
2023-04-16T00:41:35.447Z,101202.31
2023-04-16T00:46:39.903Z,101182.94
2023-04-16T00:51:44.619Z,101197.97
2023-04-16T00:56:48.322Z,101188.19
2023-04-16T01:01:51.841Z,101191.63
2023-04-16T01:06:56.742Z,101192.28
2023-04-16T01:12:00.163Z,101196.38
2023-04-16T01:17:03.986Z,101186.59
2023-04-16T01:22:09.189Z,101183.94
2023-04-16T01:27:12.627Z,101183.00
2023-04-16T01:32:16.136Z,101194.13
2023-04-16T01:37:21.016Z,101193.97
2023-04-16T01:42:24.278Z,101205.28
2023-04-16T01:47:27.706Z,101203.50
2023-04-16T01:52:32.965Z,101198.19
2023-04-16T01:57:36.401Z,101199.91
2023-04-16T02:02:40.048Z,101199.03
2023-04-16T02:07:45.081Z,101198.06
2023-04-16T02:12:48.261Z,101199.66
2023-04-16T02:17:56.758Z,101204.75
2023-04-16T02:23:01.599Z,101202.72
2023-04-16T02:28:05.424Z,101201.63
2023-04-16T02:33:10.612Z,101204.19
2023-04-16T02:38:15.260Z,101206.75
2023-04-16T02:43:18.494Z,101204.97
2023-04-16T02:48:21.826Z,101211.91
2023-04-16T02:53:26.709Z,101214.69
2023-04-16T02:58:30.453Z,101219.13
2023-04-16T03:03:33.857Z,101217.63
2023-04-16T03:08:38.715Z,101216.97
2023-04-16T03:13:41.909Z,101215.44
2023-04-16T03:18:45.493Z,101213.34
2023-04-16T03:23:50.072Z,101219.28
2023-04-16T03:28:53.748Z,101217.31
2023-04-16T03:33:57.213Z,101223.19
2023-04-16T03:39:02.076Z,101224.72
2023-04-16T03:44:05.407Z,101219.22
2023-04-16T03:49:09.042Z,101215.56
2023-04-16T03:54:13.891Z,101215.44
2023-04-16T03:59:17.307Z,101214.38
2023-04-16T04:04:20.588Z,101214.09
2023-04-16T04:09:25.572Z,101205.81
2023-04-16T04:14:28.894Z,101200.97
2023-04-16T04:19:32.094Z,101209.31
2023-04-16T04:24:37.286Z,101209.81
2023-04-16T04:29:40.649Z,101206.63
2023-04-16T04:34:43.862Z,101204.13
2023-04-16T04:39:48.926Z,101208.66
2023-04-16T04:44:52.501Z,101213.13
2023-04-16T04:49:56.005Z,101198.25
2023-04-16T04:55:00.833Z,101206.22
2023-04-16T05:00:04.482Z,101202.81
2023-04-16T05:05:10.961Z,101189.72
2023-04-16T05:10:15.837Z,101201.25
2023-04-16T05:15:19.050Z,101194.22
2023-04-16T05:20:22.910Z,101198.53
2023-04-16T05:25:27.982Z,101196.69
2023-04-16T05:30:31.257Z,101192.88
2023-04-16T05:35:35.143Z,101193.38
2023-04-16T05:40:40.144Z,101198.22
2023-04-16T05:45:43.552Z,101192.25
2023-04-16T05:50:46.892Z,101192.75
2023-04-16T05:55:52.166Z,101182.81
2023-04-16T06:00:55.575Z,101188.13
2023-04-16T06:05:58.885Z,101188.75
2023-04-16T06:11:03.743Z,101184.16
2023-04-16T06:16:08.079Z,101190.13
2023-04-16T06:21:11.498Z,101194.06
2023-04-16T06:26:16.374Z,101187.38
2023-04-16T06:31:20.455Z,101186.75
2023-04-16T06:36:23.987Z,101175.22
2023-04-16T06:41:28.852Z,101177.84
2023-04-16T06:46:32.792Z,101168.25
2023-04-16T06:51:36.374Z,101159.59
2023-04-16T06:56:41.109Z,101159.94
2023-04-16T07:01:45.215Z,101158.69
2023-04-16T07:06:48.534Z,101159.97
2023-04-16T07:11:53.333Z,101158.22
2023-04-16T07:16:56.887Z,101165.88
2023-04-16T07:22:00.426Z,101144.59
2023-04-16T07:27:05.538Z,101153.97
2023-04-16T07:32:09.715Z,101145.50
2023-04-16T07:37:13.226Z,101143.22
2023-04-16T07:42:17.901Z,101154.00
2023-04-16T07:47:21.276Z,101149.56
2023-04-16T07:52:24.625Z,101136.41
2023-04-16T07:57:29.277Z,101134.50
2023-04-16T08:02:33.285Z,101123.44
2023-04-16T08:07:36.619Z,101127.03
2023-04-16T08:12:41.500Z,101116.13
2023-04-16T08:17:44.793Z,101113.94
2023-04-16T08:22:48.373Z,101102.59
2023-04-16T08:27:53.083Z,101098.66
2023-04-16T08:32:56.685Z,101087.59
2023-04-16T08:38:02.359Z,101083.31
2023-04-16T08:43:11.546Z,101079.97
2023-04-16T08:48:15.235Z,101062.13
2023-04-16T08:53:20.437Z,101066.00
2023-04-16T08:58:30.753Z,101063.94
2023-04-16T09:03:36.436Z,101068.44
2023-04-16T09:08:40.768Z,101059.78
2023-04-16T09:13:46.151Z,101056.41
2023-04-16T09:18:49.509Z,101044.97
2023-04-16T09:23:54.645Z,101053.25
2023-04-16T09:28:59.573Z,101050.22
2023-04-16T09:34:04.562Z,101050.19
2023-04-16T09:39:08.106Z,101053.16
2023-04-16T09:44:12.825Z,101043.94
2023-04-16T09:49:18.822Z,101032.31
2023-04-16T09:54:22.212Z,101039.25
2023-04-16T09:59:26.868Z,101027.47
2023-04-16T10:04:30.415Z,101020.38
2023-04-16T10:09:34.736Z,100998.50
2023-04-16T10:14:39.707Z,101026.63
2023-04-16T10:19:43.512Z,101019.50
2023-04-16T10:24:49.107Z,101005.78
2023-04-16T10:29:54.061Z,101010.19
2023-04-16T10:34:57.370Z,101005.13
2023-04-16T10:40:01.097Z,100997.06
2023-04-16T10:45:06.523Z,101001.06
2023-04-16T10:50:17.571Z,100999.59
2023-04-16T10:55:21.375Z,101005.75
2023-04-16T11:00:26.259Z,101001.00
2023-04-16T11:05:47.115Z,100992.97
2023-04-16T11:10:50.458Z,100985.25
2023-04-16T11:15:57.936Z,100981.22
2023-04-16T11:21:01.509Z,100967.56
2023-04-16T11:26:04.968Z,100957.84
2023-04-16T11:31:13.777Z,100946.91
2023-04-16T11:36:17.416Z,100957.47
2023-04-16T11:41:23.069Z,100949.38
2023-04-16T11:46:39.549Z,100953.56
2023-04-16T11:51:43.694Z,100927.59
2023-04-16T11:56:48.865Z,100915.06
2023-04-16T12:01:56.331Z,100908.69
2023-04-16T12:07:13.009Z,100904.88
2023-04-16T12:12:31.618Z,100912.69
2023-04-16T12:17:38.038Z,100912.25
2023-04-16T12:22:45.181Z,100905.94
2023-04-16T12:27:53.289Z,100903.91
2023-04-16T12:33:17.240Z,100904.38
2023-04-16T12:38:22.839Z,100902.28
2023-04-16T12:43:27.677Z,100892.19
2023-04-16T12:48:32.709Z,100868.97
2023-04-16T12:53:36.414Z,100873.47
2023-04-16T12:58:39.647Z,100866.69
2023-04-16T13:03:44.732Z,100866.91
2023-04-16T13:08:48.305Z,100859.44
2023-04-16T13:13:51.892Z,100862.91
2023-04-16T13:18:56.640Z,100853.25
2023-04-16T13:24:00.859Z,100842.38
2023-04-16T13:29:04.116Z,100838.91
2023-04-16T13:34:09.126Z,100835.53
2023-04-16T13:39:12.696Z,100829.97
2023-04-16T13:44:16.564Z,100821.59
2023-04-16T13:49:21.553Z,100832.75
2023-04-16T13:54:24.979Z,100821.94
2023-04-16T13:59:28.474Z,100825.19
2023-04-16T14:04:33.300Z,100813.97
2023-04-16T14:09:36.833Z,100811.94
2023-04-16T14:14:40.311Z,100820.56
2023-04-16T14:19:44.989Z,100818.16
2023-04-16T14:24:48.462Z,100812.44
2023-04-16T14:29:52.429Z,100811.75
2023-04-16T14:34:57.417Z,100810.63
2023-04-16T14:40:02.020Z,100798.66
2023-04-16T14:45:08.274Z,100800.75
2023-04-16T14:50:14.227Z,100799.88
2023-04-16T14:55:17.901Z,100803.00
2023-04-16T15:00:21.897Z,100801.66
2023-04-16T15:05:27.349Z,100804.84
2023-04-16T15:10:32.882Z,100798.75
2023-04-16T15:15:36.251Z,100790.06
2023-04-16T15:20:40.977Z,100798.16
2023-04-16T15:25:44.285Z,100796.31
2023-04-16T15:30:47.565Z,100806.25
2023-04-16T15:35:52.831Z,100809.00
2023-04-16T15:40:56.130Z,100804.88
2023-04-16T15:45:59.545Z,100796.25
2023-04-16T15:51:04.387Z,100810.06
2023-04-16T15:56:07.858Z,100807.81
2023-04-16T16:01:11.197Z,100809.06
2023-04-16T16:06:18.181Z,100811.03
2023-04-16T16:11:22.010Z,100804.09
2023-04-16T16:16:25.425Z,100811.41
2023-04-16T16:21:31.237Z,100809.78
2023-04-16T16:26:34.782Z,100811.75
2023-04-16T16:31:38.665Z,100813.50
2023-04-16T16:36:43.818Z,100816.88
2023-04-16T16:41:52.220Z,100812.97
2023-04-16T16:46:55.556Z,100821.25
2023-04-16T16:52:00.271Z,100819.66
2023-04-16T16:57:03.616Z,100819.81
2023-04-16T17:02:07.070Z,100822.63
2023-04-16T17:07:11.886Z,100828.16
2023-04-16T17:12:15.556Z,100830.22
2023-04-16T17:17:19.117Z,100798.13
2023-04-16T17:22:23.891Z,100830.94
2023-04-16T17:27:29.515Z,100831.13
2023-04-16T17:32:33.670Z,100826.88
2023-04-16T17:37:38.684Z,100809.69
2023-04-16T17:42:41.905Z,100825.75
2023-04-16T17:47:45.485Z,100819.97
2023-04-16T17:52:50.169Z,100818.53
2023-04-16T17:57:53.690Z,100812.59
2023-04-16T18:02:58.845Z,100810.84
2023-04-16T18:08:03.679Z,100816.13
2023-04-16T18:13:07.161Z,100812.72
2023-04-16T18:18:11.003Z,100812.03
2023-04-16T18:23:15.863Z,100819.44
2023-04-16T18:28:19.270Z,100818.16
2023-04-16T18:33:48.776Z,100810.66
2023-04-16T18:39:00.162Z,100808.22
2023-04-16T18:44:04.966Z,100802.34
2023-04-16T18:49:08.430Z,100801.69
2023-04-16T18:54:13.394Z,100810.69
2023-04-16T18:59:16.932Z,100803.72
2023-04-16T19:04:20.595Z,100804.63
2023-04-16T19:09:26.585Z,100800.25
2023-04-16T19:14:29.925Z,100808.25
2023-04-16T19:19:33.404Z,100806.63
2023-04-16T19:24:38.167Z,100801.47
2023-04-16T19:29:43.743Z,100803.31
2023-04-16T19:34:47.388Z,100804.25
2023-04-16T19:39:52.146Z,100807.06
2023-04-16T19:44:55.894Z,100815.19
2023-04-16T19:49:59.082Z,100810.13
2023-04-16T19:55:03.935Z,100817.34
2023-04-16T20:00:11.574Z,100815.69
2023-04-16T20:05:15.140Z,100815.84
2023-04-16T20:10:19.941Z,100815.94
2023-04-16T20:15:23.513Z,100814.25
2023-04-16T20:20:27.454Z,100816.97
2023-04-16T20:25:32.372Z,100810.84
2023-04-16T20:30:39.038Z,100807.38
2023-04-16T20:35:43.007Z,100808.25
2023-04-16T20:40:47.889Z,100803.91
2023-04-16T20:45:51.237Z,100798.63
2023-04-16T20:50:59.776Z,100799.50
2023-04-16T20:56:04.692Z,100809.16
2023-04-16T21:01:07.969Z,100805.63
2023-04-16T21:06:14.516Z,100805.63
2023-04-16T21:11:19.182Z,100795.09
2023-04-16T21:16:22.563Z,100810.91
2023-04-16T21:21:27.792Z,100807.38
2023-04-16T21:26:33.980Z,100803.88
2023-04-16T21:31:37.317Z,100810.00
2023-04-16T21:36:40.648Z,100791.56
2023-04-16T21:41:45.392Z,100817.88
2023-04-16T21:46:48.743Z,100822.25
2023-04-16T21:51:59.176Z,100817.88
2023-04-16T21:57:03.926Z,100816.13
2023-04-16T22:02:10.077Z,100809.97
2023-04-16T22:07:13.926Z,100819.63
2023-04-16T22:12:18.546Z,100817.91
2023-04-16T22:17:21.813Z,100819.69
2023-04-16T22:22:25.078Z,100829.34
2023-04-16T22:27:29.892Z,100826.69
2023-04-16T22:32:33.372Z,100830.22
2023-04-16T22:37:37.050Z,100830.22
2023-04-16T22:42:41.656Z,100831.97
2023-04-16T22:47:44.884Z,100827.59
2023-04-16T22:52:48.223Z,100820.59
2023-04-16T22:57:52.872Z,100825.84
2023-04-16T23:02:56.230Z,100826.75
2023-04-16T23:07:59.646Z,100827.59
2023-04-16T23:13:04.302Z,100824.06
2023-04-16T23:18:07.677Z,100822.31
2023-04-16T23:23:10.996Z,100830.19
2023-04-16T23:28:15.884Z,100822.28
2023-04-16T23:33:19.214Z,100817.91
2023-04-16T23:38:22.404Z,100822.31
2023-04-16T23:43:26.997Z,100824.94
2023-04-16T23:48:30.517Z,100822.31
2023-04-16T23:53:33.854Z,100815.31
2023-04-16T23:58:38.627Z,100818.81
